createdAt,value
2019-03-04T00:01:42.016Z,8.40
2019-03-04T00:04:12.456Z,8.40
2019-03-04T00:06:42.478Z,8.40
2019-03-04T00:09:12.379Z,8.40
2019-03-04T00:11:42.291Z,8.40
2019-03-04T00:14:12.197Z,8.40
2019-03-04T00:16:42.237Z,8.40
2019-03-04T00:19:12.448Z,8.40
2019-03-04T00:21:42.684Z,8.40
2019-03-04T00:24:14.300Z,8.40
2019-03-04T00:26:44.197Z,8.30
2019-03-04T00:29:14.361Z,8.40
2019-03-04T00:31:44.220Z,8.40
2019-03-04T00:34:15.804Z,8.40
2019-03-04T00:36:47.273Z,8.30
2019-03-04T00:39:17.399Z,8.40
2019-03-04T00:41:47.399Z,8.40
2019-03-04T00:44:17.435Z,8.30
2019-03-04T00:46:47.515Z,8.30
2019-03-04T00:49:19.395Z,8.30
2019-03-04T00:51:49.512Z,8.30
2019-03-04T00:54:19.924Z,8.30
2019-03-04T00:56:50.053Z,8.30
2019-03-04T00:59:20.092Z,8.30
2019-03-04T01:01:50.073Z,8.30
2019-03-04T01:04:20.205Z,8.30
2019-03-04T01:06:50.237Z,8.30
2019-03-04T01:09:20.333Z,8.30
2019-03-04T01:11:50.180Z,8.30
2019-03-04T01:14:23.542Z,8.30
2019-03-04T01:16:59.946Z,8.30
2019-03-04T01:19:30.128Z,8.30
2019-03-04T01:22:00.040Z,8.40
2019-03-04T01:24:31.188Z,8.40
2019-03-04T01:27:01.200Z,8.40
2019-03-04T01:29:31.100Z,8.40
2019-03-04T01:32:01.166Z,8.40
2019-03-04T01:34:31.235Z,8.30
2019-03-04T01:37:01.193Z,8.40
2019-03-04T01:39:31.286Z,8.30
2019-03-04T01:42:02.228Z,8.30
2019-03-04T01:44:32.174Z,8.30
2019-03-04T01:47:02.032Z,8.30
2019-03-04T01:49:33.528Z,8.40
2019-03-04T01:52:03.481Z,8.40
2019-03-04T01:54:33.513Z,8.40
2019-03-04T01:57:03.444Z,8.40
2019-03-04T01:59:33.633Z,8.40
2019-03-04T02:02:05.113Z,8.40
2019-03-04T02:04:35.220Z,8.40
2019-03-04T02:07:06.754Z,8.40
2019-03-04T02:09:36.777Z,8.40
2019-03-04T02:12:06.819Z,8.40
2019-03-04T02:14:36.708Z,8.40
2019-03-04T02:17:06.741Z,8.40
2019-03-04T02:19:38.286Z,8.40
2019-03-04T02:22:08.249Z,8.40
2019-03-04T02:24:38.315Z,8.40
2019-03-04T02:27:08.651Z,8.40
2019-03-04T02:29:38.920Z,8.40
2019-03-04T02:32:08.917Z,8.40
2019-03-04T02:34:39.937Z,8.40
2019-03-04T02:37:09.922Z,8.30
2019-03-04T02:39:39.897Z,8.30
2019-03-04T02:42:09.841Z,8.30
2019-03-04T02:44:41.413Z,8.20
2019-03-04T02:47:11.414Z,8.30
2019-03-04T02:49:41.459Z,8.20
2019-03-04T02:52:11.676Z,8.20
2019-03-04T02:54:43.325Z,8.20
2019-03-04T02:57:14.714Z,8.20
2019-03-04T02:59:44.769Z,8.20
2019-03-04T03:02:17.359Z,8.20
2019-03-04T03:04:47.387Z,8.20
2019-03-04T03:07:17.394Z,8.20
2019-03-04T03:09:47.270Z,8.20
2019-03-04T03:12:17.274Z,8.30
2019-03-04T03:14:47.334Z,8.20
2019-03-04T03:17:17.246Z,8.30
2019-03-04T03:19:48.614Z,8.20
2019-03-04T03:22:18.620Z,8.30
2019-03-04T03:24:48.617Z,8.30
2019-03-04T03:27:18.634Z,8.30
2019-03-04T03:29:48.522Z,8.30
2019-03-04T03:32:19.983Z,8.30
2019-03-04T03:34:50.812Z,8.30
2019-03-04T03:37:20.771Z,8.30
2019-03-04T03:39:54.256Z,8.30
2019-03-04T03:42:29.840Z,8.30
2019-03-04T03:44:58.993Z,8.30
2019-03-04T03:47:28.995Z,8.30
2019-03-04T03:49:59.039Z,8.30
2019-03-04T03:52:29.133Z,8.30
2019-03-04T03:55:00.794Z,8.30
2019-03-04T03:57:30.911Z,8.30
2019-03-04T04:00:02.460Z,8.30
2019-03-04T04:02:34.111Z,8.30
2019-03-04T04:05:04.149Z,8.30
2019-03-04T04:07:34.347Z,8.30
2019-03-04T04:10:07.813Z,8.30
2019-03-04T04:12:37.836Z,8.30
2019-03-04T04:15:10.641Z,8.30
2019-03-04T04:17:42.905Z,8.30
2019-03-04T04:20:13.864Z,8.30
2019-03-04T04:22:45.306Z,8.30
2019-03-04T04:25:15.673Z,8.30
2019-03-04T04:27:47.590Z,8.40
2019-03-04T04:30:33.989Z,8.40
2019-03-04T04:33:05.740Z,8.40
2019-03-04T04:35:35.856Z,8.40
2019-03-04T04:38:06.876Z,8.40
2019-03-04T04:40:39.454Z,8.40
2019-03-04T04:43:10.935Z,8.40
2019-03-04T04:45:41.033Z,8.40
2019-03-04T04:48:11.127Z,8.40
2019-03-04T04:50:43.536Z,8.30
2019-03-04T04:53:15.380Z,8.40
2019-03-04T04:55:45.493Z,8.30
2019-03-04T04:58:15.621Z,8.30
2019-03-04T05:00:45.770Z,8.30
2019-03-04T05:03:19.611Z,8.30
2019-03-04T05:05:49.568Z,8.40
2019-03-04T05:08:19.700Z,8.40
2019-03-04T05:10:49.796Z,8.30
2019-03-04T05:13:19.929Z,8.40
2019-03-04T05:15:50.129Z,8.40
2019-03-04T05:18:21.800Z,8.40
2019-03-04T05:20:52.318Z,8.40
2019-03-04T05:23:22.548Z,8.40
2019-03-04T05:25:52.643Z,8.40
2019-03-04T05:28:22.674Z,8.40
2019-03-04T05:30:54.281Z,8.50
2019-03-04T05:33:24.343Z,8.50
2019-03-04T05:35:55.989Z,8.50
2019-03-04T05:38:27.639Z,8.40
2019-03-04T05:40:59.292Z,8.50
2019-03-04T05:43:29.456Z,8.50
2019-03-04T05:45:59.630Z,8.50
2019-03-04T05:48:30.980Z,8.50
2019-03-04T05:51:00.887Z,8.50
2019-03-04T05:53:30.908Z,8.50
2019-03-04T05:56:00.928Z,8.50
2019-03-04T05:58:30.844Z,8.50
2019-03-04T06:01:20.333Z,8.60
2019-03-04T06:03:53.825Z,8.60
2019-03-04T06:06:40.926Z,8.60
2019-03-04T06:09:12.780Z,8.70
2019-03-04T06:11:42.685Z,8.70
2019-03-04T06:14:12.721Z,8.80
2019-03-04T06:16:47.248Z,8.80
2019-03-04T06:19:14.388Z,8.80
2019-03-04T06:21:44.296Z,8.90
2019-03-04T06:24:14.098Z,8.90
2019-03-04T06:26:44.028Z,9.00
2019-03-04T06:29:14.036Z,9.00
2019-03-04T06:31:43.952Z,9.00
2019-03-04T06:34:13.971Z,9.00
2019-03-04T06:36:43.870Z,9.00
2019-03-04T06:39:13.890Z,9.00
2019-03-04T06:41:43.899Z,9.00
2019-03-04T06:44:13.921Z,9.00
2019-03-04T06:46:44.860Z,9.00
2019-03-04T06:49:14.882Z,9.00
2019-03-04T06:51:44.954Z,9.00
2019-03-04T06:54:23.199Z,9.00
2019-03-04T06:57:05.635Z,9.00
2019-03-04T07:00:11.660Z,9.10
2019-03-04T07:02:44.419Z,9.10
2019-03-04T07:05:48.664Z,9.20
2019-03-04T07:08:36.599Z,9.30
2019-03-04T07:11:08.159Z,9.40
2019-03-04T07:13:38.179Z,9.50
2019-03-04T07:16:08.187Z,9.60
2019-03-04T07:18:38.308Z,9.70
2019-03-04T07:21:08.482Z,9.80
2019-03-04T07:23:38.539Z,10.00
2019-03-04T07:26:08.761Z,10.10
2019-03-04T07:28:38.879Z,10.20
2019-03-04T07:31:08.779Z,10.20
2019-03-04T07:33:38.928Z,10.20
2019-03-04T07:36:08.819Z,10.30
2019-03-04T07:38:53.262Z,10.30
2019-03-04T07:41:24.442Z,10.40
2019-03-04T07:43:54.770Z,10.50
2019-03-04T07:46:25.280Z,10.60
2019-03-04T07:48:55.259Z,10.70
2019-03-04T07:51:25.447Z,10.80
2019-03-04T07:53:55.419Z,10.80
2019-03-04T07:56:25.447Z,10.90
2019-03-04T07:58:55.560Z,11.10
2019-03-04T08:01:25.460Z,11.20
2019-03-04T08:03:55.687Z,11.20
2019-03-04T08:06:25.699Z,11.30
2019-03-04T08:09:16.401Z,11.40
2019-03-04T08:12:18.279Z,11.50
2019-03-04T08:14:48.579Z,11.60
2019-03-04T08:17:18.604Z,11.60
2019-03-04T08:19:49.839Z,11.40
2019-03-04T08:22:19.860Z,11.30
2019-03-04T08:24:49.860Z,11.10
2019-03-04T08:27:19.699Z,11.00
2019-03-04T08:29:50.236Z,11.00
2019-03-04T08:32:20.341Z,11.20
2019-03-04T08:34:50.438Z,11.40
2019-03-04T08:37:20.359Z,11.60
2019-03-04T08:39:50.489Z,11.80
2019-03-04T08:42:20.399Z,11.90
2019-03-04T08:44:50.520Z,11.90
2019-03-04T08:47:20.424Z,11.90
2019-03-04T08:49:50.539Z,11.80
2019-03-04T08:52:20.579Z,11.70
2019-03-04T08:54:50.579Z,11.70
2019-03-04T08:57:20.599Z,11.70
2019-03-04T08:59:50.599Z,11.70
2019-03-04T09:02:20.520Z,11.60
2019-03-04T09:04:50.667Z,11.70
2019-03-04T09:07:20.560Z,11.70
2019-03-04T09:09:50.580Z,11.70
2019-03-04T09:12:20.581Z,11.70
2019-03-04T09:14:51.027Z,11.70
2019-03-04T09:17:20.921Z,11.70
2019-03-04T09:19:50.839Z,11.70
2019-03-04T09:22:20.839Z,11.80
2019-03-04T09:24:50.979Z,11.80
2019-03-04T09:27:20.980Z,11.80
2019-03-04T09:29:51.219Z,11.90
2019-03-04T09:32:21.239Z,11.90
2019-03-04T09:34:51.359Z,11.90
2019-03-04T09:37:21.461Z,12.00
2019-03-04T09:39:51.379Z,12.00
2019-03-04T09:42:22.399Z,12.00
2019-03-04T09:44:53.759Z,12.00
2019-03-04T09:47:23.779Z,12.10
2019-03-04T09:49:53.999Z,12.20
2019-03-04T09:52:23.899Z,12.30
2019-03-04T09:54:54.066Z,12.20
2019-03-04T09:57:24.039Z,12.20
2019-03-04T09:59:53.967Z,12.20
2019-03-04T10:02:24.227Z,12.20
2019-03-04T10:04:57.079Z,12.30
2019-03-04T10:07:33.019Z,12.40
2019-03-04T10:10:05.999Z,12.40
2019-03-04T10:12:42.060Z,12.50
2019-03-04T10:15:17.623Z,12.50
2019-03-04T10:17:53.152Z,12.60
2019-03-04T10:20:44.159Z,12.60
2019-03-04T10:23:25.967Z,12.70
2019-03-04T10:26:22.631Z,12.80
2019-03-04T10:29:08.059Z,12.80
2019-03-04T10:31:55.908Z,12.90
2019-03-04T10:34:49.979Z,12.90
2019-03-04T10:37:40.069Z,13.00
2019-03-04T10:40:15.935Z,13.00
2019-03-04T10:43:05.279Z,13.00
2019-03-04T10:45:50.339Z,13.10
2019-03-04T10:48:20.259Z,13.20
2019-03-04T10:50:50.279Z,13.30
2019-03-04T10:53:20.401Z,13.50
2019-03-04T10:55:52.781Z,13.80
2019-03-04T10:58:22.679Z,14.00
2019-03-04T11:00:52.701Z,14.30
2019-03-04T11:03:22.947Z,14.50
2019-03-04T11:05:52.919Z,14.80
2019-03-04T11:08:22.968Z,15.10
2019-03-04T11:10:53.982Z,15.20
2019-03-04T11:13:24.000Z,15.50
2019-03-04T11:15:54.119Z,15.70
2019-03-04T11:18:24.159Z,15.90
2019-03-04T11:20:54.160Z,16.00
2019-03-04T11:23:26.439Z,16.00
2019-03-04T11:25:56.440Z,15.90
2019-03-04T11:28:26.823Z,15.70
2019-03-04T11:30:56.881Z,15.60
2019-03-04T11:33:26.923Z,15.50
2019-03-04T11:35:56.919Z,15.40
2019-03-04T11:38:47.723Z,15.40
2019-03-04T11:41:20.099Z,15.30
2019-03-04T11:43:50.519Z,15.30
2019-03-04T11:46:22.159Z,15.30
2019-03-04T11:48:52.099Z,15.50
2019-03-04T11:51:22.099Z,15.70
2019-03-04T11:53:52.151Z,16.00
2019-03-04T11:56:22.239Z,16.10
2019-03-04T11:58:52.327Z,16.10
2019-03-04T12:01:23.899Z,16.00
2019-03-04T12:03:53.982Z,15.90
2019-03-04T12:06:23.919Z,15.70
2019-03-04T12:08:53.962Z,15.50
2019-03-04T12:11:24.082Z,15.30
2019-03-04T12:13:54.079Z,15.20
2019-03-04T12:16:24.299Z,15.10
2019-03-04T12:18:54.421Z,15.10
2019-03-04T12:21:24.419Z,15.10
2019-03-04T12:23:54.339Z,15.20
2019-03-04T12:26:24.359Z,15.20
2019-03-04T12:28:54.631Z,15.20
2019-03-04T12:31:28.293Z,15.20
2019-03-04T12:33:57.699Z,15.10
2019-03-04T12:36:29.240Z,15.10
2019-03-04T12:39:00.379Z,15.10
2019-03-04T12:41:30.919Z,15.20
2019-03-04T12:52:24.021Z,15.50
2019-03-04T12:54:53.919Z,15.70
2019-03-04T12:57:23.959Z,16.00
2019-03-04T12:59:53.859Z,16.10
2019-03-04T13:02:23.879Z,16.20
2019-03-04T13:04:53.808Z,16.30
2019-03-04T13:07:23.699Z,16.20
2019-03-04T13:09:53.600Z,16.30
2019-03-04T13:12:23.640Z,16.30
2019-03-04T13:14:53.588Z,16.30
2019-03-04T13:17:23.664Z,16.40
2019-03-04T13:19:53.559Z,16.40
2019-03-04T13:22:23.799Z,16.50
2019-03-04T13:24:53.699Z,16.60
2019-03-04T13:27:24.168Z,16.60
2019-03-04T13:29:54.359Z,16.50
2019-03-04T13:32:24.340Z,16.40
2019-03-04T13:34:54.499Z,16.30
2019-03-04T13:37:24.522Z,16.30
2019-03-04T13:39:54.539Z,16.30
2019-03-04T13:42:24.639Z,16.30
2019-03-04T13:44:54.659Z,16.30
2019-03-04T13:47:24.561Z,16.20
2019-03-04T13:49:54.588Z,16.10
2019-03-04T13:52:24.644Z,16.00
2019-03-04T13:54:56.070Z,15.90
2019-03-04T13:57:26.568Z,15.80
2019-03-04T13:59:56.489Z,15.80
2019-03-04T14:02:26.507Z,15.80
2019-03-04T14:04:56.519Z,15.80
2019-03-04T14:07:26.551Z,15.80
2019-03-04T14:09:56.420Z,15.90
2019-03-04T14:12:26.679Z,15.90
2019-03-04T14:14:56.799Z,16.00
2019-03-04T14:17:26.708Z,16.00
2019-03-04T14:19:56.616Z,16.00
2019-03-04T14:22:26.635Z,16.00
2019-03-04T14:24:56.626Z,16.00
2019-03-04T14:27:26.557Z,15.90
2019-03-04T14:29:57.597Z,15.80
2019-03-04T14:32:27.717Z,15.70
2019-03-04T14:34:57.937Z,15.60
2019-03-04T14:37:27.846Z,15.50
2019-03-04T14:39:57.893Z,15.50
2019-03-04T14:42:27.973Z,15.50
2019-03-04T14:44:58.054Z,15.40
2019-03-04T14:47:28.293Z,15.40
2019-03-04T14:50:09.469Z,15.30
2019-03-04T14:52:31.534Z,15.20
2019-03-04T14:55:01.449Z,15.20
2019-03-04T14:57:31.404Z,15.20
2019-03-04T15:00:01.581Z,15.20
2019-03-04T15:02:32.116Z,15.20
2019-03-04T15:05:02.021Z,15.20
2019-03-04T15:07:31.990Z,15.10
2019-03-04T15:10:04.213Z,15.10
2019-03-04T15:12:34.216Z,15.00
2019-03-04T15:15:05.974Z,14.90
2019-03-04T15:17:35.977Z,14.90
2019-03-04T15:20:09.776Z,14.80
2019-03-04T15:22:39.898Z,14.80
2019-03-04T15:25:12.873Z,14.70
2019-03-04T15:27:42.914Z,14.70
2019-03-04T15:30:13.644Z,14.60
2019-03-04T15:32:43.654Z,14.60
2019-03-04T15:35:13.884Z,14.50
2019-03-04T15:37:43.795Z,14.50
2019-03-04T15:40:16.672Z,14.50
2019-03-04T15:42:46.687Z,14.50
2019-03-04T15:45:16.921Z,14.50
2019-03-04T15:47:47.131Z,14.60
2019-03-04T15:50:17.062Z,14.50
2019-03-04T15:52:47.069Z,14.50
2019-03-04T15:55:16.984Z,14.50
2019-03-04T15:57:48.718Z,14.40
2019-03-04T16:00:18.950Z,14.40
2019-03-04T16:02:49.589Z,14.30
2019-03-04T16:05:20.513Z,14.30
2019-03-04T16:07:50.657Z,14.20
2019-03-04T16:10:23.939Z,14.20
2019-03-04T16:12:54.051Z,14.10
2019-03-04T16:15:24.318Z,14.10
2019-03-04T16:17:54.665Z,14.00
2019-03-04T16:20:24.915Z,14.00
2019-03-04T16:22:56.173Z,14.00
2019-03-04T16:25:27.285Z,13.90
2019-03-04T16:28:00.086Z,13.90
2019-03-04T16:30:31.637Z,13.80
2019-03-04T16:33:01.646Z,13.80
2019-03-04T16:35:31.969Z,13.70
2019-03-04T16:38:01.967Z,13.60
2019-03-04T16:40:31.901Z,13.50
2019-03-04T16:43:01.912Z,13.40
2019-03-04T16:45:32.038Z,13.40
2019-03-04T16:48:02.049Z,13.30
2019-03-04T16:50:40.350Z,13.20
2019-03-04T16:53:21.948Z,13.10
2019-03-04T16:55:51.970Z,13.00
2019-03-04T16:58:21.881Z,13.00
2019-03-04T17:00:52.235Z,12.90
2019-03-04T17:03:22.232Z,12.80
2019-03-04T17:05:52.239Z,12.70
2019-03-04T17:08:22.135Z,12.60
2019-03-04T17:10:53.076Z,12.60
2019-03-04T17:13:23.280Z,12.60
2019-03-04T17:15:53.418Z,12.60
2019-03-04T17:18:23.572Z,12.50
2019-03-04T17:20:53.566Z,12.50
2019-03-04T17:23:23.754Z,12.50
2019-03-04T17:25:53.773Z,12.50
2019-03-04T17:28:23.918Z,12.50
2019-03-04T17:30:54.369Z,12.40
2019-03-04T17:33:24.247Z,12.50
2019-03-04T17:35:54.366Z,12.50
2019-03-04T17:38:24.372Z,12.50
2019-03-04T17:40:54.287Z,12.50
2019-03-04T17:43:24.524Z,12.60
2019-03-04T17:45:54.712Z,12.60
2019-03-04T17:48:24.631Z,12.60
2019-03-04T17:50:54.749Z,12.60
2019-03-04T17:53:24.586Z,12.50
2019-03-04T17:55:54.689Z,12.50
2019-03-04T17:58:24.606Z,12.50
2019-03-04T18:00:58.204Z,12.50
2019-03-04T18:03:28.096Z,12.50
2019-03-04T18:05:58.131Z,12.60
2019-03-04T18:08:28.180Z,12.60
2019-03-04T18:10:58.268Z,12.70
2019-03-04T18:13:28.164Z,12.70
2019-03-04T18:15:58.252Z,12.80
2019-03-04T18:18:28.371Z,12.90
2019-03-04T18:20:58.498Z,12.90
2019-03-04T18:23:28.436Z,13.00
2019-03-04T18:26:10.134Z,13.00
2019-03-04T18:29:02.801Z,13.00
2019-03-04T18:31:44.478Z,13.00
2019-03-04T18:34:26.891Z,13.00
2019-03-04T18:37:06.216Z,13.00
2019-03-04T18:39:57.336Z,13.00
2019-03-04T18:42:42.377Z,13.00
2019-03-04T18:45:27.450Z,13.10
2019-03-04T18:48:12.510Z,13.10
2019-03-04T18:50:42.546Z,13.10
2019-03-04T18:53:12.761Z,13.20
2019-03-04T18:55:42.778Z,13.20
2019-03-04T18:58:12.894Z,13.30
2019-03-04T19:00:43.181Z,13.30
2019-03-04T19:03:13.758Z,13.40
2019-03-04T19:05:43.656Z,13.40
2019-03-04T19:08:13.671Z,13.50
2019-03-04T19:10:43.781Z,13.50
2019-03-04T19:13:13.908Z,13.50
2019-03-04T19:15:43.807Z,13.50
2019-03-04T19:18:13.848Z,13.60
2019-03-04T19:20:44.058Z,13.60
2019-03-04T19:23:14.270Z,13.60
2019-03-04T19:25:44.292Z,13.60
2019-03-04T19:28:14.406Z,13.60
2019-03-04T19:30:45.442Z,13.60
2019-03-04T19:33:15.458Z,13.60
2019-03-04T19:35:45.468Z,13.70
2019-03-04T19:38:15.495Z,13.60
2019-03-04T19:40:45.438Z,13.70
2019-03-04T19:43:15.840Z,13.70
2019-03-04T19:45:46.093Z,13.60
2019-03-04T19:48:16.249Z,13.60
2019-03-04T19:50:46.085Z,13.60
2019-03-04T19:53:16.107Z,13.60
2019-03-04T19:55:46.008Z,13.50
2019-03-04T19:58:15.997Z,13.50
2019-03-04T20:00:45.952Z,13.40
2019-03-04T20:03:16.185Z,13.40
2019-03-04T20:05:46.354Z,13.40
2019-03-04T20:08:17.217Z,13.40
2019-03-04T20:10:47.341Z,13.40
2019-03-04T20:13:17.368Z,13.50
2019-03-04T20:15:47.515Z,13.40
2019-03-04T20:18:17.858Z,13.40
2019-03-04T20:20:48.153Z,13.40
2019-03-04T20:23:18.958Z,13.30
2019-03-04T20:25:49.457Z,13.30
2019-03-04T20:28:19.502Z,13.30
2019-03-04T20:30:49.514Z,13.30
2019-03-04T20:33:19.418Z,13.20
2019-03-04T20:35:49.749Z,13.20
2019-03-04T20:38:25.691Z,13.20
2019-03-04T20:40:56.026Z,13.10
2019-03-04T20:43:25.834Z,13.10
2019-03-04T20:45:56.366Z,13.10
2019-03-04T20:48:26.275Z,13.10
2019-03-04T20:50:56.386Z,13.00
2019-03-04T20:53:26.197Z,13.00
2019-03-04T20:55:56.120Z,13.00
2019-03-04T20:58:26.140Z,13.00
2019-03-04T21:00:56.151Z,12.90
2019-03-04T21:03:34.551Z,13.00
2019-03-04T21:05:57.940Z,12.90
2019-03-04T21:08:27.956Z,12.90
2019-03-04T21:10:58.253Z,12.90
2019-03-04T21:13:34.977Z,12.80
2019-03-04T21:15:59.930Z,12.80
2019-03-04T21:18:30.137Z,12.80
2019-03-04T21:21:00.478Z,12.70
2019-03-04T21:23:30.592Z,12.70
2019-03-04T21:26:06.337Z,12.70
2019-03-04T21:28:56.413Z,12.70
2019-03-04T21:31:29.294Z,12.60
2019-03-04T21:34:18.807Z,12.60
2019-03-04T21:37:00.165Z,12.60
2019-03-04T21:39:40.995Z,12.50
2019-03-04T21:42:14.285Z,12.50
2019-03-04T21:45:03.492Z,12.50
2019-03-04T21:47:37.810Z,12.40
2019-03-04T21:50:12.924Z,12.30
2019-03-04T21:52:49.205Z,12.30
2019-03-04T21:55:22.539Z,12.30
2019-03-04T21:57:56.845Z,12.20
2019-03-04T22:00:32.685Z,12.20
2019-03-04T22:03:11.062Z,12.20
2019-03-04T22:05:50.094Z,12.10
2019-03-04T22:08:14.684Z,12.10
2019-03-04T22:10:46.732Z,12.10
2019-03-04T22:13:20.747Z,12.10
2019-03-04T22:15:51.144Z,12.00
2019-03-04T22:18:24.146Z,12.00
2019-03-04T22:20:56.724Z,11.90
2019-03-04T22:23:28.536Z,11.90
2019-03-04T22:26:02.198Z,11.90
2019-03-04T22:28:34.767Z,11.80
2019-03-04T22:31:05.701Z,11.80
2019-03-04T22:33:36.164Z,11.80
2019-03-04T22:36:06.374Z,11.80
2019-03-04T22:38:37.337Z,11.80
2019-03-04T22:41:07.342Z,11.80
2019-03-04T22:43:37.222Z,11.70
2019-03-04T22:46:07.162Z,11.70
2019-03-04T22:48:37.201Z,11.70
2019-03-04T22:51:07.398Z,11.80
2019-03-04T22:53:37.429Z,11.80
2019-03-04T22:56:07.540Z,11.80
2019-03-04T22:58:37.467Z,11.80
2019-03-04T23:01:16.881Z,11.80
2019-03-04T23:03:47.201Z,11.80
2019-03-04T23:06:49.061Z,11.80
2019-03-04T23:09:19.482Z,11.80
2019-03-04T23:12:04.364Z,11.80
2019-03-04T23:14:36.006Z,11.80
2019-03-04T23:17:06.231Z,11.70
2019-03-04T23:19:36.064Z,11.70
2019-03-04T23:22:06.141Z,11.70
2019-03-04T23:24:36.220Z,11.60
2019-03-04T23:27:06.387Z,11.60
2019-03-04T23:29:36.396Z,11.60
2019-03-04T23:32:06.483Z,11.60
2019-03-04T23:34:36.558Z,11.50
2019-03-04T23:37:06.543Z,11.40
2019-03-04T23:39:36.577Z,11.30
2019-03-04T23:42:06.767Z,11.30
2019-03-04T23:44:36.817Z,11.20
2019-03-04T23:47:06.824Z,11.20
2019-03-04T23:49:36.851Z,11.20
2019-03-04T23:52:07.038Z,11.10
2019-03-04T23:54:37.082Z,11.10
2019-03-04T23:57:08.295Z,11.00
2019-03-04T23:59:38.214Z,11.00
